Airport View

Enter AWOS ICAO identifier for current METAR.

ex. KFNL

KCMY 202335Z AUTO 02004KT 3SM -RA CLR 01/01 A3005 RMK AO2 LTG DSNT SE AND S P0003 T00120005

20 Oct 2020 23:44

Frequency: 119.775

Phone: 608-269-0724

Other Area AWOS: KBCK - KVOK - KLSE - KY51

TAF KVOK 201700Z 2017/2123 12010G15KT 9999 -RASN BKN020 620209 QNH3002INS BECMG 2023/2024 20006KT 9000 -SN OVC005 620059 QNH2996INS BECMG 2103/2104 20006KT 8000 -RASN OVC005 620309 QNH2995INS BECMG 2105/2106 27006KT 9999 NSW OVC005 QNH2995INS BECMG 2114/2115 28009KT 9999 SCT010 SCT120 QNH3016INS BECMG 2120/2121 31006KT 9999 SCT050 QNH3019INS TX03/2107Z TN01/2113Z LAST NO AMDS AFT 2021 NEXT 2109